Time;durP1;ratioP1;P1;durP2;ratioP2;P2;SDS_P1;SDS_P2;PMS_P1;PMS_P2;Temp;Humidity;BMP_temperature;BMP_pressure;BME280_temperature;BME280_humidity;BME280_pressure;Samples;Min_cycle;Max_cycle;Signal;HPM_P1;HPM_P2
2021/10/17 00:00:20;;;;;;;;;15.67;14.67;;;;;10.83;62.58;101677.09;4982598;28;46230;-69
2021/10/17 00:02:46;;;;;;;;;18.33;12.33;;;;;10.79;61.56;101672.09;4980816;28;45710;-68
2021/10/17 00:05:13;;;;;;;;;17.00;14.33;;;;;10.78;61.60;101671.28;4985246;28;45298;-67
2021/10/17 00:07:39;;;;;;;;;18.67;14.33;;;;;10.76;62.05;101669.69;4984138;28;45502;-69
2021/10/17 00:10:07;;;;;;;;;21.00;17.33;;;;;10.72;62.17;101667.22;4980722;28;46377;-65
2021/10/17 00:12:33;;;;;;;;;22.00;18.33;;;;;10.70;62.86;101663.00;4979216;28;45398;-69
2021/10/17 00:14:59;;;;;;;;;23.00;21.33;;;;;10.69;63.45;101666.53;4975645;28;45374;-67
2021/10/17 00:17:24;;;;;;;;;21.67;18.33;;;;;10.65;62.76;101660.66;4975817;28;45538;-69
2021/10/17 00:19:50;;;;;;;;;17.67;15.00;;;;;10.64;62.92;101664.22;4983077;28;47002;-69
2021/10/17 00:22:16;;;;;;;;;20.67;18.00;;;;;10.66;63.21;101664.13;4984122;28;45409;-67
2021/10/17 00:24:41;;;;;;;;;16.00;13.00;;;;;10.64;62.46;101660.72;4982228;28;45703;-68
2021/10/17 00:27:07;;;;;;;;;25.00;21.33;;;;;10.63;63.14;101661.69;4977023;28;45573;-69
2021/10/17 00:29:32;;;;;;;;;21.33;17.33;;;;;10.61;63.66;101659.13;4983146;28;45972;-69
2021/10/17 00:31:58;;;;;;;;;27.33;19.67;;;;;10.59;63.80;101663.63;4980591;28;45448;-67
2021/10/17 00:34:23;;;;;;;;;19.00;15.00;;;;;10.58;63.15;101659.31;4980941;28;45491;-67
2021/10/17 00:36:49;;;;;;;;;20.33;19.00;;;;;10.55;62.98;101651.63;4982307;28;45614;-68
2021/10/17 00:39:15;;;;;;;;;24.67;18.67;;;;;10.55;63.02;101654.25;4961849;28;46966;-67
2021/10/17 00:41:41;;;;;;;;;21.33;15.33;;;;;10.53;62.56;101656.13;4979719;28;45459;-67
2021/10/17 00:44:07;;;;;;;;;20.00;17.00;;;;;10.51;62.98;101658.84;4981072;28;45477;-68
2021/10/17 00:46:32;;;;;;;;;19.33;19.00;;;;;10.49;63.19;101662.50;4980849;28;45536;-68
2021/10/17 00:48:58;;;;;;;;;20.33;16.00;;;;;10.46;63.58;101663.50;4979618;28;46294;-68
2021/10/17 00:51:23;;;;;;;;;19.33;16.67;;;;;10.43;63.90;101665.47;4960682;28;45281;-68
2021/10/17 00:53:49;;;;;;;;;19.33;17.33;;;;;10.33;64.13;101658.09;4979457;28;45481;-68
2021/10/17 00:56:15;;;;;;;;;24.67;20.33;;;;;10.37;63.81;101666.69;4981632;28;45425;-68
2021/10/17 00:58:40;;;;;;;;;30.67;23.33;;;;;10.37;63.86;101667.53;4979563;28;47176;-68
2021/10/17 01:01:06;;;;;;;;;22.67;19.67;;;;;10.37;63.90;101666.69;4980786;28;45584;-67
2021/10/17 01:03:31;;;;;;;;;20.67;16.67;;;;;10.37;63.91;101661.44;4979430;28;45703;-73
2021/10/17 01:05:57;;;;;;;;;19.33;17.67;;;;;10.31;63.27;101657.34;4973019;28;45536;-72
2021/10/17 01:08:23;;;;;;;;;17.00;14.33;;;;;10.22;63.43;101660.50;4970549;28;46018;-75
2021/10/17 01:10:54;;;;;;;;;14.00;10.00;;;;;10.13;63.69;101661.03;4981668;28;45373;-72
2021/10/17 01:13:21;;;;;;;;;20.67;13.33;;;;;10.03;63.63;101655.47;4963745;28;45393;-73
2021/10/17 01:15:56;;;;;;;;;14.33;12.00;;;;;9.82;63.33;101633.91;4978951;28;45441;-72
2021/10/17 01:18:23;;;;;;;;;12.67;10.00;;;;;9.80;63.85;101644.50;4975521;28;46229;-72
2021/10/17 01:20:49;;;;;;;;;18.00;11.67;;;;;9.73;64.15;101644.00;4990968;28;45385;-73
2021/10/17 01:23:17;;;;;;;;;17.67;12.33;;;;;9.67;63.97;101646.94;4988819;28;45461;-72
2021/10/17 01:25:43;;;;;;;;;17.67;12.67;;;;;9.64;64.44;101641.03;4980766;28;45520;-73
2021/10/17 01:28:09;;;;;;;;;12.33;11.33;;;;;9.60;63.76;101639.50;4979047;28;45407;-73
2021/10/17 01:30:34;;;;;;;;;18.67;13.67;;;;;9.58;64.47;101634.34;4973374;28;45492;-72
2021/10/17 01:33:00;;;;;;;;;14.67;13.00;;;;;9.55;64.76;101637.16;4990294;28;45330;-74
2021/10/17 01:35:26;;;;;;;;;17.00;12.33;;;;;9.54;64.90;101640.72;4979142;28;45574;-72
2021/10/17 01:37:51;;;;;;;;;12.33;12.33;;;;;9.51;64.73;101622.50;4989118;28;46525;-74
2021/10/17 01:40:17;;;;;;;;;16.00;14.00;;;;;9.51;64.99;101632.97;4983872;28;45440;-73
2021/10/17 01:42:42;;;;;;;;;12.33;11.67;;;;;9.47;65.82;101640.19;4973386;28;45608;-63
2021/10/17 01:45:09;;;;;;;;;14.67;12.00;;;;;9.48;65.47;101638.41;4976774;28;45480;-63
2021/10/17 01:47:34;;;;;;;;;20.67;15.67;;;;;9.50;65.92;101626.91;4983243;28;45593;-64
2021/10/17 01:50:00;;;;;;;;;19.33;15.67;;;;;9.50;66.10;101633.94;4985467;28;47043;-64
2021/10/17 01:52:25;;;;;;;;;24.00;20.33;;;;;9.51;66.33;101640.84;4988057;28;45960;-63
2021/10/17 01:54:50;;;;;;;;;21.67;17.00;;;;;9.53;66.42;101649.50;4990615;28;45429;-63
2021/10/17 01:57:16;;;;;;;;;24.00;22.33;;;;;9.54;66.35;101648.56;4979812;28;45421;-63
2021/10/17 01:59:41;;;;;;;;;19.00;13.33;;;;;9.57;66.20;101640.53;4980613;28;45333;-64
2021/10/17 02:02:06;;;;;;;;;24.33;20.33;;;;;9.59;66.04;101643.91;4981721;28;45328;-63
2021/10/17 02:04:32;;;;;;;;;26.00;20.67;;;;;9.58;66.02;101642.22;4982041;28;45371;-63
2021/10/17 02:06:58;;;;;;;;;26.50;22.00;;;;;9.57;66.31;101640.53;4981385;28;46333;-63
2021/10/17 02:09:23;;;;;;;;;25.25;20.25;;;;;9.55;66.03;101643.25;4979581;28;45337;-64
2021/10/17 02:11:48;;;;;;;;;31.00;25.00;;;;;9.49;66.59;101648.81;4978628;28;45271;-63
2021/10/17 02:14:14;;;;;;;;;34.00;27.75;;;;;9.45;66.51;101643.84;4981971;28;45279;-64
2021/10/17 02:16:39;;;;;;;;;21.75;16.25;;;;;9.40;66.68;101639.66;4965489;28;48463;-63
2021/10/17 02:19:04;;;;;;;;;30.00;27.25;;;;;9.38;66.76;101638.91;4980962;28;45522;-64
2021/10/17 02:21:30;;;;;;;;;25.00;23.25;;;;;9.33;66.57;101640.13;4962937;28;45365;-64
2021/10/17 02:23:55;;;;;;;;;28.50;24.00;;;;;9.31;66.96;101639.34;4977786;28;45255;-63
2021/10/17 02:26:20;;;;;;;;;29.00;23.75;;;;;9.30;67.18;101633.25;4981747;28;46954;-64
2021/10/17 02:28:46;;;;;;;;;30.00;25.75;;;;;9.22;67.13;101623.19;4987666;28;45588;-63
2021/10/17 02:31:11;;;;;;;;;29.00;26.25;;;;;9.25;66.93;101630.88;4987290;28;45509;-63
2021/10/17 02:33:39;;;;;;;;;31.50;28.25;;;;;9.21;67.17;101628.50;4981110;28;45540;-63
2021/10/17 02:36:04;;;;;;;;;32.75;24.25;;;;;9.19;67.19;101625.13;4977154;28;46700;-64
2021/10/17 02:38:30;;;;;;;;;28.75;25.50;;;;;9.16;67.26;101628.75;4982914;28;45475;-63
2021/10/17 02:40:55;;;;;;;;;31.75;24.25;;;;;9.14;67.38;101627.16;4984857;28;45307;-63
2021/10/17 02:43:21;;;;;;;;;29.75;27.50;;;;;9.09;67.44;101630.00;4983788;28;45295;-63
2021/10/17 02:45:46;;;;;;;;;31.75;28.25;;;;;9.05;67.55;101626.69;4967331;28;48237;-63
2021/10/17 02:48:12;;;;;;;;;25.25;23.50;;;;;9.02;67.39;101626.03;4980248;28;45640;-63
2021/10/17 02:50:37;;;;;;;;;23.75;19.75;;;;;9.00;67.58;101628.72;4980124;28;45309;-63
2021/10/17 02:53:03;;;;;;;;;27.75;22.00;;;;;8.98;67.75;101638.44;4982132;28;45537;-64
2021/10/17 02:55:28;;;;;;;;;30.75;24.75;;;;;8.96;67.60;101629.81;4983651;28;46204;-64
2021/10/17 02:57:53;;;;;;;;;30.50;23.25;;;;;8.95;67.31;101628.09;4981616;28;45311;-64
2021/10/17 03:00:19;;;;;;;;;25.00;20.25;;;;;8.94;67.41;101621.19;4960908;28;45412;-64
2021/10/17 03:02:44;;;;;;;;;22.00;21.00;;;;;8.90;67.87;101614.44;4978727;28;45354;-63
2021/10/17 03:05:10;;;;;;;;;23.25;20.00;;;;;8.91;67.56;101626.56;4980897;28;45981;-64
2021/10/17 03:07:35;;;;;;;;;26.00;23.50;;;;;8.93;67.87;101619.50;4986419;28;45535;-63
2021/10/17 03:10:00;;;;;;;;;27.75;21.00;;;;;8.94;67.62;101620.34;4988270;28;45473;-62
2021/10/17 03:12:26;;;;;;;;;31.00;24.50;;;;;8.92;67.60;101612.56;4979611;28;45352;-63
2021/10/17 03:14:51;;;;;;;;;27.50;23.00;;;;;8.91;67.60;101606.47;4964213;28;46009;-63
2021/10/17 03:17:16;;;;;;;;;21.75;20.00;;;;;8.94;67.96;101612.47;4981394;28;45542;-63
2021/10/17 03:19:42;;;;;;;;;17.50;16.75;;;;;8.93;67.59;101618.66;4962798;28;45515;-64
2021/10/17 03:22:07;;;;;;;;;24.00;22.00;;;;;8.90;67.77;101615.25;4980183;28;45573;-63
2021/10/17 03:24:32;;;;;;;;;23.50;17.00;;;;;8.91;67.79;101616.97;4980532;28;45631;-63
2021/10/17 03:26:58;;;;;;;;;20.00;17.25;;;;;8.93;67.67;101618.66;4974011;28;45360;-63
2021/10/17 03:29:23;;;;;;;;;21.25;17.00;;;;;8.97;68.15;101615.78;4982511;28;45232;-64
2021/10/17 03:31:49;;;;;;;;;28.50;24.00;;;;;9.01;67.64;101617.31;4980683;28;45483;-63
2021/10/17 03:34:14;;;;;;;;;24.50;19.25;;;;;9.06;67.63;101625.75;4986116;28;47113;-64
2021/10/17 03:36:39;;;;;;;;;27.00;22.75;;;;;9.07;67.53;101619.59;4967090;28;45408;-61
2021/10/17 03:39:05;;;;;;;;;19.00;15.50;;;;;9.07;67.53;101616.16;4963739;28;45321;-64
2021/10/17 03:41:30;;;;;;;;;27.75;21.00;;;;;9.04;67.20;101617.16;4982132;28;45471;-63
2021/10/17 03:43:56;;;;;;;;;20.75;20.75;;;;;9.05;67.19;101610.13;4980237;28;46127;-63
2021/10/17 03:46:22;;;;;;;;;23.00;18.00;;;;;9.03;67.64;101604.97;4980687;28;45474;-63
2021/10/17 03:48:47;;;;;;;;;22.75;19.25;;;;;9.01;67.52;101591.09;4980493;28;45310;-63
2021/10/17 03:51:13;;;;;;;;;31.75;21.75;;;;;9.01;67.69;101596.34;4977081;28;46738;-64
2021/10/17 03:53:38;;;;;;;;;29.75;23.75;;;;;8.94;67.36;101591.50;4977657;28;47300;-64
2021/10/17 03:56:04;;;;;;;;;23.75;23.75;;;;;8.91;67.62;101601.25;4971859;28;45263;-64
2021/10/17 03:58:29;;;;;;;;;23.50;19.25;;;;;8.90;67.65;101596.09;4976598;28;45324;-64
2021/10/17 04:00:55;;;;;;;;;25.25;16.25;;;;;8.88;67.69;101604.00;4980441;28;45288;-64
2021/10/17 04:03:20;;;;;;;;;32.00;25.00;;;;;8.91;67.88;101605.63;4975917;28;47212;-61
2021/10/17 04:05:46;;;;;;;;;25.00;21.67;;;;;8.91;67.91;101605.63;4977545;28;45643;-61
2021/10/17 04:08:11;;;;;;;;;29.50;19.75;;;;;8.91;67.78;101603.00;4979982;28;45754;-62
2021/10/17 04:10:37;;;;;;;;;20.33;17.00;;;;;8.91;67.87;101600.38;4979360;28;45274;-64
2021/10/17 04:13:04;;;;;;;;;22.67;21.67;;;;;8.94;67.97;101605.47;4978754;28;46708;-64
2021/10/17 04:15:31;;;;;;;;;27.00;22.00;;;;;8.97;67.90;101604.47;4978403;28;45401;-64
2021/10/17 04:17:57;;;;;;;;;25.50;18.25;;;;;8.97;67.54;101600.06;4980939;28;45571;-64
2021/10/17 04:20:22;;;;;;;;;25.00;23.67;;;;;9.01;67.87;101603.38;4978924;28;45700;-63
2021/10/17 04:22:47;;;;;;;;;21.00;18.00;;;;;8.99;67.97;101595.59;4979017;28;45584;-62
2021/10/17 04:25:13;;;;;;;;;25.25;20.00;;;;;9.02;67.83;101602.44;4978856;28;45386;-62
2021/10/17 04:27:38;;;;;;;;;26.50;22.25;;;;;9.03;67.65;101597.13;4976705;28;45396;-64
2021/10/17 04:30:05;;;;;;;;;28.25;22.00;;;;;9.03;67.77;101599.72;4990560;28;45389;-63
2021/10/17 04:32:31;;;;;;;;;26.75;22.50;;;;;9.04;67.69;101595.31;4987002;28;46202;-64
2021/10/17 04:34:56;;;;;;;;;25.00;21.25;;;;;9.06;67.95;101591.69;4979708;28;45314;-63
2021/10/17 04:37:21;;;;;;;;;20.67;16.67;;;;;9.06;68.00;101589.06;4979995;28;45428;-63
2021/10/17 04:39:47;;;;;;;;;22.00;21.33;;;;;9.06;67.87;101594.31;4979903;28;45513;-63
2021/10/17 04:42:12;;;;;;;;;29.25;23.25;;;;;9.06;67.69;101599.56;4978530;28;46026;-63
2021/10/17 04:44:38;;;;;;;;;27.25;23.00;;;;;9.04;67.93;101590.94;4981314;28;45544;-63
2021/10/17 04:47:04;;;;;;;;;29.00;21.25;;;;;9.08;67.99;101589.84;4980219;28;45413;-65
2021/10/17 04:49:29;;;;;;;;;22.75;21.50;;;;;9.10;67.79;101594.16;4979382;28;45731;-62
2021/10/17 04:51:55;;;;;;;;;27.00;22.25;;;;;9.07;67.70;101595.19;4980374;28;46203;-63
2021/10/17 04:54:21;;;;;;;;;26.00;20.67;;;;;9.07;68.21;101595.19;4976947;28;45503;-64
2021/10/17 04:56:47;;;;;;;;;19.33;17.67;;;;;9.06;68.34;101589.06;4975559;28;46524;-62
2021/10/17 04:59:14;;;;;;;;;26.25;24.00;;;;;9.04;68.33;101596.19;4979391;28;45460;-64
2021/10/17 05:01:39;;;;;;;;;29.50;21.25;;;;;9.03;68.27;101602.34;4983223;28;46237;-64
2021/10/17 05:04:04;;;;;;;;;27.50;23.75;;;;;9.02;68.31;101592.78;4983567;28;45305;-64
2021/10/17 05:06:30;;;;;;;;;29.25;25.00;;;;;9.03;67.99;101604.97;4966280;28;45663;-64
2021/10/17 05:08:55;;;;;;;;;27.50;24.25;;;;;9.02;68.21;101595.41;4975004;28;45638;-63
2021/10/17 05:11:23;;;;;;;;;27.75;19.50;;;;;9.00;68.34;101591.19;4979200;28;45970;-64
2021/10/17 05:13:48;;;;;;;;;13.67;13.67;;;;;9.04;67.94;101600.56;4978692;28;45228;-64
2021/10/17 05:16:14;;;;;;;;;23.50;21.50;;;;;8.99;68.41;101598.22;4982648;28;45468;-63
2021/10/17 05:18:39;;;;;;;;;23.75;20.25;;;;;9.00;68.23;101604.28;4986713;28;45414;-62
2021/10/17 05:21:04;;;;;;;;;39.50;31.50;;;;;9.01;68.56;101603.38;4984182;28;46292;-64
2021/10/17 05:23:30;;;;;;;;;37.50;26.25;;;;;9.00;68.16;101599.03;4983067;28;45346;-63
2021/10/17 05:25:55;;;;;;;;;25.50;22.50;;;;;9.01;67.96;101606.81;4981985;28;45320;-63
2021/10/17 05:28:21;;;;;;;;;23.67;22.00;;;;;8.97;67.93;101605.28;4982433;28;45305;-65
2021/10/17 05:30:46;;;;;;;;;22.00;20.33;;;;;8.98;67.90;101607.00;4983720;28;45475;-63
2021/10/17 05:33:12;;;;;;;;;20.33;18.00;;;;;8.98;68.07;101607.00;4983747;28;45418;-64
2021/10/17 05:35:37;;;;;;;;;19.33;17.33;;;;;8.95;67.93;101607.13;4985477;28;45428;-64
2021/10/17 05:38:02;;;;;;;;;23.33;19.67;;;;;8.97;67.96;101609.69;4983254;28;45460;-63
2021/10/17 05:40:28;;;;;;;;;25.00;18.67;;;;;8.92;68.09;101612.56;4984872;28;46204;-64
2021/10/17 05:42:53;;;;;;;;;20.50;17.75;;;;;8.88;67.78;101609.25;4984283;28;45437;-64
2021/10/17 05:45:19;;;;;;;;;16.67;16.33;;;;;8.87;68.23;101614.56;4979557;28;45381;-62
2021/10/17 05:47:44;;;;;;;;;22.67;15.67;;;;;8.86;68.27;101618.13;4979948;28;45315;-63
2021/10/17 05:50:09;;;;;;;;;23.33;21.33;;;;;8.85;68.54;101619.91;4982062;28;45521;-62
2021/10/17 05:52:35;;;;;;;;;22.50;21.50;;;;;8.86;68.37;101618.13;4981801;28;45536;-64
2021/10/17 05:55:00;;;;;;;;;28.67;22.33;;;;;8.86;68.16;101618.13;4981869;28;45389;-63
2021/10/17 05:57:26;;;;;;;;;28.75;24.25;;;;;8.85;68.27;101619.06;4977511;28;45364;-64
2021/10/17 05:59:51;;;;;;;;;27.33;22.67;;;;;8.87;68.02;101625.06;4977455;28;46093;-63
2021/10/17 06:02:18;;;;;;;;;26.00;18.00;;;;;8.89;67.87;101628.44;4981910;28;45405;-64
2021/10/17 06:04:44;;;;;;;;;28.67;19.00;;;;;8.87;67.96;101620.69;4987392;28;47548;-64
2021/10/17 06:07:10;;;;;;;;;25.67;19.67;;;;;8.88;68.03;101621.50;4993963;28;45683;-65
2021/10/17 06:09:38;;;;;;;;;24.67;17.00;;;;;8.87;67.94;101625.06;4989657;28;47568;-65
2021/10/17 06:12:04;;;;;;;;;24.67;20.67;;;;;8.85;68.08;101626.94;4962583;28;45571;-65
2021/10/17 06:14:30;;;;;;;;;20.25;20.25;;;;;8.79;68.37;101622.84;4989076;28;45392;-65
2021/10/17 06:16:55;;;;;;;;;28.75;25.00;;;;;8.75;68.18;101630.00;4981764;28;45612;-65
2021/10/17 06:19:20;;;;;;;;;26.75;22.00;;;;;8.70;68.33;101634.63;4980902;28;46745;-64
2021/10/17 06:21:46;;;;;;;;;35.50;26.75;;;;;8.65;68.36;101630.56;4981346;28;45321;-63
2021/10/17 06:24:11;;;;;;;;;30.25;24.00;;;;;8.61;68.42;101642.97;4978220;28;45320;-65
2021/10/17 06:26:36;;;;;;;;;27.25;23.50;;;;;8.56;68.24;101642.34;4980523;28;45303;-63
2021/10/17 06:29:02;;;;;;;;;33.25;24.25;;;;;8.51;68.40;101645.22;4981259;28;47307;-64
2021/10/17 06:31:27;;;;;;;;;26.25;22.50;;;;;8.48;68.39;101639.28;4980903;28;45290;-65
2021/10/17 06:33:52;;;;;;;;;32.00;23.00;;;;;8.49;68.45;101644.44;4982000;28;45267;-65
2021/10/17 06:36:18;;;;;;;;;28.25;22.25;;;;;8.49;68.49;101646.22;4979157;28;45308;-64
2021/10/17 06:38:43;;;;;;;;;26.75;21.25;;;;;8.49;68.73;101648.84;4973145;28;47429;-65
2021/10/17 06:41:08;;;;;;;;;26.50;21.75;;;;;8.48;68.25;101657.63;4981359;28;46557;-65
2021/10/17 06:43:34;;;;;;;;;28.25;24.75;;;;;8.45;68.74;101649.91;4982848;28;45384;-64
2021/10/17 06:45:59;;;;;;;;;24.00;20.75;;;;;8.43;68.69;101656.06;4989128;28;45433;-63
2021/10/17 06:48:24;;;;;;;;;28.00;21.75;;;;;8.43;68.73;101658.69;4979251;28;45950;-64
2021/10/17 06:50:50;;;;;;;;;26.00;20.75;;;;;8.41;68.63;101665.75;4978040;28;45438;-65
2021/10/17 06:53:15;;;;;;;;;28.50;24.00;;;;;8.42;69.13;101667.44;4990364;28;45456;-63
2021/10/17 06:55:41;;;;;;;;;26.25;22.75;;;;;8.45;68.87;101665.63;4983874;28;45291;-64
2021/10/17 06:58:06;;;;;;;;;32.00;23.75;;;;;8.50;68.79;101668.88;4963388;28;46340;-64
2021/10/17 07:00:31;;;;;;;;;30.25;24.25;;;;;8.53;69.00;101660.84;4978442;28;45720;-63
2021/10/17 07:02:57;;;;;;;;;32.25;25.00;;;;;8.63;68.90;101674.31;4976257;28;45434;-65
2021/10/17 07:05:22;;;;;;;;;26.00;23.25;;;;;8.67;68.82;101673.25;4981505;28;45385;-63
2021/10/17 07:07:47;;;;;;;;;25.00;18.50;;;;;8.73;68.59;101680.78;4980412;28;46281;-65
2021/10/17 07:10:12;;;;;;;;;31.50;25.50;;;;;8.79;68.61;101682.25;4976968;28;45373;-64
2021/10/17 07:12:38;;;;;;;;;22.25;21.25;;;;;8.81;68.42;101683.88;4980866;28;45398;-64
2021/10/17 07:15:03;;;;;;;;;25.25;23.00;;;;;8.85;68.68;101685.41;4977002;28;45494;-64
2021/10/17 07:17:29;;;;;;;;;27.00;20.25;;;;;8.87;68.52;101690.56;4980283;28;46126;-64
2021/10/17 07:19:54;;;;;;;;;25.33;22.33;;;;;8.89;68.16;101686.94;4980257;28;45461;-64
2021/10/17 07:22:20;;;;;;;;;27.75;23.50;;;;;8.99;68.20;101687.31;4987663;28;45493;-64
2021/10/17 07:24:45;;;;;;;;;27.33;21.00;;;;;9.04;68.13;101685.31;4981096;28;45434;-65
2021/10/17 07:27:10;;;;;;;;;27.67;21.67;;;;;9.08;67.97;101686.84;4977565;28;46064;-64
2021/10/17 07:29:36;;;;;;;;;24.67;22.00;;;;;9.12;67.79;101687.53;4964981;28;45411;-66
2021/10/17 07:32:01;;;;;;;;;28.00;19.33;;;;;9.20;67.73;101684.50;4984350;28;45357;-64
2021/10/17 07:34:27;;;;;;;;;27.33;19.67;;;;;9.19;67.90;101680.19;4983808;28;45450;-64
2021/10/17 07:36:52;;;;;;;;;35.33;25.00;;;;;9.23;67.69;101684.31;4983865;28;45398;-63
2021/10/17 07:39:18;;;;;;;;;31.00;23.00;;;;;9.20;67.56;101685.34;4977469;28;45409;-64
2021/10/17 07:41:48;;;;;;;;;27.00;23.67;;;;;9.19;67.72;101683.63;4978995;28;45490;-65
2021/10/17 07:44:15;;;;;;;;;34.25;24.00;;;;;9.17;67.75;101682.88;4981091;28;45325;-64
2021/10/17 07:46:40;;;;;;;;;27.75;22.50;;;;;9.18;67.84;101687.16;4983845;28;45575;-65
2021/10/17 07:49:05;;;;;;;;;30.00;24.50;;;;;9.23;67.94;101684.31;4987478;28;45349;-64
2021/10/17 07:51:31;;;;;;;;;25.33;23.00;;;;;9.31;67.74;101692.63;4980801;28;45364;-65
2021/10/17 07:53:56;;;;;;;;;31.00;25.00;;;;;9.38;67.61;101688.75;4976971;28;45496;-64
2021/10/17 07:56:22;;;;;;;;;27.00;19.00;;;;;9.47;67.39;101682.16;4981605;28;46048;-64
2021/10/17 07:58:47;;;;;;;;;25.00;21.33;;;;;9.58;67.17;101689.44;4979780;28;45264;-64
2021/10/17 08:01:13;;;;;;;;;25.00;23.00;;;;;9.68;67.02;101690.63;4979830;28;45424;-64
2021/10/17 08:03:38;;;;;;;;;25.67;21.67;;;;;9.76;66.96;101682.34;4980833;28;45316;-65
2021/10/17 08:06:04;;;;;;;;;25.33;22.00;;;;;9.83;65.94;101685.47;4975707;28;46134;-64
2021/10/17 08:08:29;;;;;;;;;28.00;25.33;;;;;9.91;66.11;101686.72;4982105;28;45464;-64
2021/10/17 08:10:55;;;;;;;;;32.00;24.33;;;;;10.00;65.98;101685.38;4979420;28;45303;-65
2021/10/17 08:13:20;;;;;;;;;26.33;22.67;;;;;10.09;65.76;101683.97;4981636;28;45433;-65
2021/10/17 08:15:45;;;;;;;;;34.00;25.33;;;;;10.14;65.61;101683.72;4989264;28;46243;-65
2021/10/17 08:18:11;;;;;;;;;27.00;22.33;;;;;10.20;65.72;101688.63;4976659;28;45268;-64
2021/10/17 08:20:37;;;;;;;;;24.00;20.67;;;;;10.27;64.87;101697.00;4979634;28;45430;-65
2021/10/17 08:23:02;;;;;;;;;25.67;20.00;;;;;10.32;65.22;101693.16;4980319;28;45592;-63
2021/10/17 08:25:30;;;;;;;;;29.33;23.00;;;;;10.38;64.57;101687.59;4984239;28;45480;-64
2021/10/17 08:27:55;;;;;;;;;23.67;19.67;;;;;10.43;64.76;101686.47;4988377;28;45570;-64
2021/10/17 08:30:20;;;;;;;;;26.00;22.00;;;;;10.51;64.49;101689.53;4977308;28;45765;-65
2021/10/17 08:32:46;;;;;;;;;25.33;24.00;;;;;10.59;64.41;101687.28;4977441;28;45524;-64
2021/10/17 08:35:12;;;;;;;;;24.33;22.00;;;;;10.73;64.76;101689.94;4992959;28;46128;-65
2021/10/17 08:37:37;;;;;;;;;30.67;25.00;;;;;10.84;63.24;101685.81;4982522;28;45457;-65
2021/10/17 08:40:03;;;;;;;;;28.00;22.00;;;;;10.90;63.25;101680.19;4977895;28;45299;-64
2021/10/17 08:42:28;;;;;;;;;31.67;25.67;;;;;11.00;63.23;101677.84;4990695;28;47866;-64
2021/10/17 08:44:56;;;;;;;;;25.33;20.00;;;;;11.07;62.48;101677.38;4976280;28;45389;-65
2021/10/17 08:47:26;;;;;;;;;26.33;20.67;;;;;11.14;63.14;101671.75;4980423;28;45443;-64
2021/10/17 08:49:51;;;;;;;;;34.33;26.67;;;;;11.19;62.45;101674.94;4979699;28;46833;-64
2021/10/17 08:52:17;;;;;;;;;29.00;25.33;;;;;11.27;62.71;101672.66;4980895;28;45560;-64
2021/10/17 08:54:44;;;;;;;;;26.67;23.00;;;;;11.35;62.24;101665.16;4988901;28;45808;-64
2021/10/17 08:57:09;;;;;;;;;24.00;21.00;;;;;11.50;62.32;101670.41;4976392;28;45487;-64
2021/10/17 08:59:35;;;;;;;;;24.67;24.33;;;;;11.62;61.96;101672.25;4979006;28;45359;-66
2021/10/17 09:02:15;;;;;;;;;30.67;22.67;;;;;11.72;60.93;101668.06;4979956;28;45356;-64
2021/10/17 09:04:41;;;;;;;;;22.00;20.33;;;;;11.83;60.86;101659.50;4979800;28;47035;-65
2021/10/17 09:07:17;;;;;;;;;19.00;18.00;;;;;11.93;60.65;101665.00;4984212;28;45572;-63
2021/10/17 09:10:15;;;;;;;;;24.00;20.33;;;;;12.04;59.62;101662.56;4980783;28;45470;-63
2021/10/17 09:12:46;;;;;;;;;23.33;20.67;;;;;12.14;59.21;101659.31;4981431;28;45765;-65
2021/10/17 09:15:28;;;;;;;;;24.67;19.67;;;;;12.23;59.83;101666.59;4977308;28;46342;-64
2021/10/17 09:18:18;;;;;;;;;21.00;19.33;;;;;12.33;59.55;101672.94;4992610;28;45417;-66
2021/10/17 09:20:46;;;;;;;;;20.00;20.00;;;;;12.47;59.40;101673.84;4993971;28;45209;-65
2021/10/17 09:23:14;;;;;;;;;24.00;21.00;;;;;12.55;58.60;101674.16;4983981;28;45591;-66
2021/10/17 09:25:39;;;;;;;;;17.67;16.00;;;;;12.66;58.93;101679.56;4983209;28;46826;-64
2021/10/17 09:28:18;;;;;;;;;23.33;19.67;;;;;12.77;57.04;101677.97;4983963;28;45383;-66
2021/10/17 09:31:09;;;;;;;;;21.00;16.67;;;;;12.87;57.73;101671.13;4983711;28;45425;-65
2021/10/17 09:33:46;;;;;;;;;14.00;14.00;;;;;13.00;57.86;101671.09;4962930;28;45628;-66
2021/10/17 09:36:16;;;;;;;;;20.00;18.67;;;;;13.09;57.24;101669.63;4966839;28;45537;-65
2021/10/17 09:38:44;;;;;;;;;21.33;17.33;;;;;13.18;57.47;101668.97;4964286;28;46021;-64
2021/10/17 09:41:20;;;;;;;;;19.00;16.67;;;;;13.21;56.79;101666.97;4979876;28;45672;-65
2021/10/17 09:44:06;;;;;;;;;17.33;16.67;;;;;13.33;57.04;101667.88;4978776;28;45461;-65
2021/10/17 09:46:31;;;;;;;;;23.00;17.67;;;;;13.37;56.88;101668.53;4976774;28;46619;-64
2021/10/17 09:48:57;;;;;;;;;17.67;16.33;;;;;13.42;56.88;101660.31;4974350;28;45465;-64
2021/10/17 09:51:29;;;;;;;;;16.67;15.00;;;;;13.50;56.63;101657.97;4977203;28;45469;-64
2021/10/17 09:53:59;;;;;;;;;17.50;17.00;;;;;13.60;56.69;101652.88;4975891;28;45410;-66
2021/10/17 09:56:34;;;;;;;;;17.00;16.33;;;;;13.68;56.53;101650.50;4978508;28;45544;-65
2021/10/17 09:59:06;;;;;;;;;16.00;14.33;;;;;13.76;56.18;101647.31;4977011;28;45448;-64
2021/10/17 10:01:33;;;;;;;;;20.67;15.33;;;;;13.84;56.30;101644.94;4979010;28;45419;-65
2021/10/17 10:04:00;;;;;;;;;12.00;11.33;;;;;13.92;55.75;101647.00;4977394;28;45269;-65
2021/10/17 10:06:27;;;;;;;;;18.67;16.67;;;;;14.01;55.86;101647.19;4974293;28;48540;-65
2021/10/17 10:09:19;;;;;;;;;20.00;15.00;;;;;14.10;55.96;101650.09;4977588;28;45524;-64
2021/10/17 10:11:46;;;;;;;;;14.00;14.00;;;;;14.19;55.29;101660.84;4988609;28;45566;-64
2021/10/17 10:14:12;;;;;;;;;15.00;14.00;;;;;14.28;54.90;101653.16;4983666;28;45624;-64
2021/10/17 10:16:39;;;;;;;;;21.33;17.00;;;;;14.38;53.94;101653.31;4982011;28;45544;-65
2021/10/17 10:19:09;;;;;;;;;14.00;13.67;;;;;14.50;53.95;101655.03;4976379;28;45615;-65
2021/10/17 10:21:39;;;;;;;;;16.00;12.00;;;;;14.59;53.92;101656.97;4981300;28;45545;-64
2021/10/17 10:24:07;;;;;;;;;21.67;17.67;;;;;14.65;53.55;101656.53;4962388;28;45485;-64
2021/10/17 10:26:34;;;;;;;;;26.67;19.33;;;;;14.74;53.73;101654.97;4981122;28;45576;-63
2021/10/17 10:29:01;;;;;;;;;17.67;16.00;;;;;14.84;53.63;101649.81;4982764;28;45555;-63
2021/10/17 10:31:45;;;;;;;;;17.00;14.33;;;;;14.95;53.68;101656.94;4963763;28;45554;-63
2021/10/17 10:34:21;;;;;;;;;11.00;10.67;;;;;15.02;53.49;101653.69;4963943;28;45283;-64
2021/10/17 10:36:47;;;;;;;;;13.33;13.33;;;;;15.13;52.76;101650.19;4978242;28;45532;-64
2021/10/17 10:39:17;;;;;;;;;13.33;12.67;;;;;15.20;52.25;101650.53;4985562;28;45435;-64
2021/10/17 10:41:53;;;;;;;;;11.67;11.67;;;;;15.27;51.88;101651.72;4992517;28;45379;-63
2021/10/17 10:44:22;;;;;;;;;12.00;12.00;;;;;15.35;51.95;101648.47;4941884;28;45503;-63
2021/10/17 10:46:54;;;;;;;;;15.67;12.00;;;;;15.39;52.02;101649.91;4942410;28;45410;-63
2021/10/17 10:49:40;;;;;;;;;11.00;9.67;;;;;15.42;50.50;101643.53;4942370;28;45517;-64
2021/10/17 10:52:08;;;;;;;;;11.67;10.33;;;;;15.42;51.28;101643.53;4941760;28;45431;-65
2021/10/17 10:54:34;;;;;;;;;13.00;12.00;;;;;15.45;50.22;101643.28;4942005;28;45486;-64
2021/10/17 10:56:59;;;;;;;;;12.33;10.67;;;;;15.49;50.71;101644.69;4937839;28;45378;-65
2021/10/17 10:59:43;;;;;;;;;13.67;11.33;;;;;15.54;49.61;101647.00;4935956;28;45264;-65
2021/10/17 11:02:14;;;;;;;;;13.33;11.33;;;;;15.63;50.90;101641.81;4942656;28;45412;-64
2021/10/17 11:04:41;;;;;;;;;15.33;10.00;;;;;15.70;50.38;101631.53;4944465;28;45415;-63
2021/10/17 11:07:19;;;;;;;;;13.33;10.00;;;;;15.73;50.21;101639.22;4944093;28;47051;-64
2021/10/17 11:09:45;;;;;;;;;14.67;12.00;;;;;15.76;50.47;101635.50;4936689;28;45308;-64
2021/10/17 11:12:30;;;;;;;;;8.00;8.00;;;;;15.80;49.24;101631.63;4937879;28;45312;-64